createdAt,value
2019-01-03T00:00:17.646Z,4.53
2019-01-03T00:03:08.901Z,4.50
2019-01-03T00:06:00.418Z,4.03
2019-01-03T00:08:55.981Z,3.60
2019-01-03T00:12:04.006Z,3.60
2019-01-03T00:15:09.219Z,4.43
2019-01-03T00:18:11.213Z,3.60
2019-01-03T00:21:07.077Z,4.43
2019-01-03T00:23:53.177Z,4.87
2019-01-03T00:26:47.109Z,3.20
2019-01-03T00:29:38.098Z,3.53
2019-01-03T00:32:33.021Z,3.80
2019-01-03T00:35:28.627Z,4.13
2019-01-03T00:38:36.453Z,6.50
2019-01-03T00:41:26.169Z,6.93
2019-01-03T00:44:11.085Z,6.47
2019-01-03T00:47:04.345Z,7.17
2019-01-03T00:50:09.146Z,8.60
2019-01-03T00:52:58.938Z,6.30
2019-01-03T00:55:48.685Z,6.73
2019-01-03T00:58:53.590Z,6.80
2019-01-03T01:01:46.214Z,5.90
2019-01-03T01:04:41.862Z,7.17
2019-01-03T01:07:30.354Z,6.73
2019-01-03T01:10:20.251Z,7.13
2019-01-03T01:13:08.986Z,6.97
2019-01-03T01:15:57.995Z,7.50
2019-01-03T01:18:43.695Z,7.03
2019-01-03T01:21:33.429Z,6.10
2019-01-03T01:24:21.781Z,7.77
2019-01-03T01:27:27.005Z,6.60
2019-01-03T01:30:24.207Z,6.13
2019-01-03T01:33:14.065Z,7.10
2019-01-03T01:36:02.794Z,7.23
2019-01-03T01:38:51.489Z,6.63
2019-01-03T01:41:47.238Z,6.00
2019-01-03T01:44:43.258Z,7.20
2019-01-03T01:47:38.957Z,5.97
2019-01-03T01:50:28.941Z,6.07
2019-01-03T01:53:20.366Z,6.10
2019-01-03T01:56:08.610Z,6.70
2019-01-03T01:59:04.034Z,6.40
2019-01-03T02:01:56.818Z,6.10
2019-01-03T02:04:37.754Z,7.70
2019-01-03T02:07:26.504Z,4.87
2019-01-03T02:10:25.601Z,5.63
2019-01-03T02:13:27.778Z,5.00
2019-01-03T02:16:26.634Z,6.47
2019-01-03T02:19:14.982Z,5.90
2019-01-03T02:22:10.574Z,5.77
2019-01-03T02:25:18.719Z,5.80
2019-01-03T02:28:07.301Z,6.20
2019-01-03T02:31:16.218Z,6.07
2019-01-03T02:34:14.761Z,5.67
2019-01-03T02:37:03.359Z,8.23
2019-01-03T02:39:48.940Z,4.93
2019-01-03T02:42:47.998Z,4.80
2019-01-03T02:45:47.544Z,5.63
2019-01-03T02:48:52.789Z,6.73
2019-01-03T02:51:42.610Z,5.87
2019-01-03T02:54:31.057Z,6.20
2019-01-03T02:57:23.950Z,5.33
2019-01-03T03:00:16.627Z,5.40
2019-01-03T03:03:08.177Z,5.00
2019-01-03T03:06:16.509Z,4.87
2019-01-03T03:09:09.386Z,4.50
2019-01-03T03:12:01.934Z,5.83
2019-01-03T03:14:50.921Z,6.27
2019-01-03T03:17:49.842Z,5.93
2019-01-03T03:20:40.729Z,6.80
2019-01-03T03:23:30.596Z,5.40
2019-01-03T03:26:23.341Z,5.57
2019-01-03T03:29:19.238Z,6.50
2019-01-03T03:32:07.922Z,5.60
2019-01-03T03:34:52.898Z,5.53
2019-01-03T03:37:41.758Z,5.33
2019-01-03T03:40:30.358Z,5.97
2019-01-03T03:43:19.679Z,5.10
2019-01-03T03:46:09.562Z,6.27
2019-01-03T03:49:05.385Z,5.00
2019-01-03T03:51:58.338Z,5.70
2019-01-03T03:54:47.716Z,8.63
2019-01-03T03:57:36.430Z,6.43
2019-01-03T04:00:26.429Z,6.23
2019-01-03T04:03:14.968Z,6.90
2019-01-03T04:06:03.358Z,6.93
2019-01-03T04:08:59.274Z,4.50
2019-01-03T04:11:47.671Z,6.87
2019-01-03T04:14:36.365Z,4.90
2019-01-03T04:17:26.781Z,6.63
2019-01-03T04:20:32.009Z,5.30
2019-01-03T04:23:18.419Z,5.50
2019-01-03T04:26:10.075Z,5.20
2019-01-03T04:29:02.878Z,5.70
2019-01-03T04:31:51.442Z,5.57
2019-01-03T04:34:40.006Z,5.40
2019-01-03T04:37:28.378Z,5.23
2019-01-03T04:40:30.422Z,4.47
2019-01-03T04:43:23.059Z,5.20
2019-01-03T04:46:18.649Z,5.33
2019-01-03T04:49:26.496Z,4.83
2019-01-03T04:52:18.986Z,5.70
2019-01-03T04:55:08.906Z,5.17
2019-01-03T04:57:58.626Z,5.37
2019-01-03T05:00:48.460Z,5.10
2019-01-03T05:03:40.979Z,4.47
2019-01-03T05:06:31.067Z,4.20
2019-01-03T05:09:35.843Z,5.10
2019-01-03T05:12:41.114Z,5.30
2019-01-03T05:15:31.763Z,4.10
2019-01-03T05:18:21.557Z,4.40
2019-01-03T05:21:09.802Z,4.17
2019-01-03T05:23:57.870Z,4.10
2019-01-03T05:26:46.539Z,5.77
2019-01-03T05:29:38.218Z,4.77
2019-01-03T05:32:43.327Z,5.50
2019-01-03T05:35:31.609Z,4.43
2019-01-03T05:38:24.110Z,5.27
2019-01-03T05:41:19.982Z,3.60
2019-01-03T05:44:26.488Z,4.97
2019-01-03T05:47:25.630Z,4.43
2019-01-03T05:50:13.970Z,4.63
2019-01-03T05:53:02.549Z,4.20
2019-01-03T05:55:51.205Z,4.33
2019-01-03T05:58:40.590Z,6.10
2019-01-03T06:01:33.396Z,4.70
2019-01-03T06:04:25.378Z,3.90
2019-01-03T06:07:27.399Z,4.00
2019-01-03T06:10:22.118Z,4.30
2019-01-03T06:13:24.114Z,4.00
2019-01-03T06:16:16.778Z,4.47
2019-01-03T06:19:06.649Z,3.90
2019-01-03T06:21:59.545Z,4.73
2019-01-03T06:24:50.986Z,5.10
2019-01-03T06:27:56.102Z,4.10
2019-01-03T06:30:48.862Z,3.63
2019-01-03T06:33:47.974Z,5.37
2019-01-03T06:36:49.625Z,4.73
2019-01-03T06:39:42.486Z,4.03
2019-01-03T06:42:37.910Z,4.70
2019-01-03T06:45:27.883Z,5.30
2019-01-03T06:48:23.566Z,4.37
2019-01-03T06:51:16.034Z,5.03
2019-01-03T06:54:23.924Z,6.13
2019-01-03T06:57:12.322Z,5.53
2019-01-03T06:59:59.212Z,5.20
2019-01-03T07:02:47.968Z,4.50
2019-01-03T07:05:40.689Z,4.30
2019-01-03T07:08:29.529Z,4.77
2019-01-03T07:11:25.256Z,4.20
2019-01-03T07:14:33.410Z,3.80
2019-01-03T07:17:21.854Z,4.43
2019-01-03T07:20:24.421Z,5.40
2019-01-03T07:23:23.117Z,5.07
2019-01-03T07:26:11.681Z,4.73
2019-01-03T07:29:07.409Z,6.57
2019-01-03T07:32:03.630Z,7.13
2019-01-03T07:35:11.691Z,7.37
2019-01-03T07:37:59.947Z,7.80
2019-01-03T07:40:58.826Z,7.10
2019-01-03T07:43:51.170Z,6.33
2019-01-03T07:46:46.698Z,6.30
2019-01-03T07:49:40.095Z,6.63
2019-01-03T07:52:28.918Z,5.70
2019-01-03T07:55:28.081Z,7.77
2019-01-03T07:58:17.878Z,6.80
2019-01-03T08:01:10.799Z,6.53
2019-01-03T08:04:09.994Z,7.90
2019-01-03T08:06:58.417Z,8.77
2019-01-03T08:09:47.137Z,10.53
2019-01-03T08:12:35.633Z,10.57
2019-01-03T08:15:36.086Z,9.60
2019-01-03T08:18:37.975Z,10.30
2019-01-03T08:21:28.386Z,8.37
2019-01-03T08:24:18.218Z,6.13
2019-01-03T08:27:08.000Z,6.13
2019-01-03T08:29:56.756Z,5.63
2019-01-03T08:33:05.386Z,8.40
2019-01-03T08:36:02.178Z,7.93
2019-01-03T08:38:54.958Z,6.10
2019-01-03T08:41:59.725Z,6.57
2019-01-03T08:44:48.437Z,6.90
2019-01-03T08:47:43.718Z,6.93
2019-01-03T08:50:42.502Z,8.20
2019-01-03T08:53:32.348Z,7.53
2019-01-03T08:56:37.262Z,7.03
2019-01-03T08:59:33.283Z,9.67
2019-01-03T09:02:23.126Z,10.93
2019-01-03T09:05:11.744Z,10.47
2019-01-03T09:08:10.938Z,10.23
2019-01-03T09:10:59.494Z,9.63
2019-01-03T09:13:48.158Z,11.40
2019-01-03T09:16:38.273Z,12.10
2019-01-03T09:19:46.501Z,15.73
2019-01-03T09:22:36.317Z,13.33
2019-01-03T09:25:44.610Z,14.47
2019-01-03T09:28:43.468Z,12.67
2019-01-03T09:31:32.041Z,11.27
2019-01-03T09:34:18.557Z,9.90
2019-01-03T09:37:08.373Z,10.10
2019-01-03T09:40:09.318Z,10.37
2019-01-03T09:42:57.762Z,7.60
2019-01-03T09:45:28.637Z,7.90
2019-01-03T09:47:59.638Z,5.70
2019-01-03T09:50:30.626Z,5.47
2019-01-03T09:53:01.621Z,6.20
2019-01-03T09:55:32.405Z,5.27
2019-01-03T09:58:03.382Z,6.30
2019-01-03T10:00:34.669Z,5.47
2019-01-03T10:03:05.685Z,6.00
2019-01-03T10:05:36.764Z,5.57
2019-01-03T10:08:07.653Z,5.40
2019-01-03T10:10:38.406Z,4.63
2019-01-03T10:13:09.217Z,5.10
2019-01-03T10:15:40.250Z,5.33
2019-01-03T10:18:11.215Z,4.73
2019-01-03T10:20:42.098Z,4.77
2019-01-03T10:23:13.091Z,5.20
2019-01-03T10:25:44.046Z,3.70
2019-01-03T10:28:14.847Z,5.07
2019-01-03T10:30:46.765Z,5.37
2019-01-03T10:33:17.657Z,5.47
2019-01-03T10:35:48.622Z,4.30
2019-01-03T10:38:21.078Z,4.37
2019-01-03T10:40:52.275Z,5.73
2019-01-03T10:43:23.159Z,5.10
2019-01-03T10:45:54.109Z,5.67
2019-01-03T10:48:25.034Z,4.60
2019-01-03T10:50:55.805Z,4.50
2019-01-03T10:53:26.809Z,3.57
2019-01-03T10:55:57.917Z,4.00
2019-01-03T10:58:28.878Z,3.80
2019-01-03T11:00:59.878Z,3.80
2019-01-03T11:03:30.974Z,4.33
2019-01-03T11:06:02.105Z,4.27
2019-01-03T11:08:33.979Z,3.20
2019-01-03T11:11:04.969Z,3.30
2019-01-03T11:13:35.946Z,4.80
2019-01-03T11:16:06.837Z,4.00
2019-01-03T11:18:37.834Z,4.43
2019-01-03T11:21:08.822Z,4.33
2019-01-03T11:23:39.814Z,4.47
2019-01-03T11:26:10.697Z,3.53
2019-01-03T11:28:41.581Z,5.10
2019-01-03T11:31:13.742Z,4.90
2019-01-03T11:33:44.581Z,5.13
2019-01-03T11:36:15.677Z,5.00
2019-01-03T11:38:46.674Z,4.03
2019-01-03T11:41:17.663Z,5.40
2019-01-03T11:43:48.538Z,6.97
2019-01-03T11:46:19.445Z,5.33
2019-01-03T11:48:50.224Z,3.50
2019-01-03T11:51:21.209Z,14.20
2019-01-03T11:53:52.201Z,4.97
2019-01-03T11:56:23.170Z,5.50
2019-01-03T11:58:53.962Z,6.80
2019-01-03T12:01:25.057Z,3.90
2019-01-03T12:03:56.166Z,3.70
2019-01-03T12:06:27.263Z,4.50
2019-01-03T12:08:58.246Z,7.97
2019-01-03T12:11:29.333Z,5.53
2019-01-03T12:14:00.429Z,3.00
2019-01-03T12:16:31.431Z,8.10
2019-01-03T12:19:02.550Z,4.80
2019-01-03T12:21:33.605Z,5.03
2019-01-03T12:24:05.510Z,5.13
2019-01-03T12:26:36.577Z,6.17
2019-01-03T12:29:07.392Z,5.50
2019-01-03T12:31:38.993Z,3.40
2019-01-03T12:34:09.995Z,4.73
2019-01-03T12:36:40.982Z,6.20
2019-01-03T12:39:11.966Z,6.67
2019-01-03T12:41:43.166Z,6.50
2019-01-03T12:44:14.143Z,5.40
2019-01-03T12:46:45.017Z,7.90
2019-01-03T12:49:16.837Z,7.43
2019-01-03T12:51:47.738Z,4.83
2019-01-03T12:54:18.726Z,13.10
2019-01-03T12:56:49.719Z,6.60
2019-01-03T12:59:20.707Z,4.90
2019-01-03T13:01:51.806Z,6.47
2019-01-03T13:04:22.682Z,6.30
2019-01-03T13:06:53.810Z,4.67
2019-01-03T13:09:24.870Z,4.50
2019-01-03T13:11:56.090Z,3.93
2019-01-03T13:14:26.954Z,5.67
2019-01-03T13:16:58.221Z,6.30
2019-01-03T13:19:29.138Z,4.70
2019-01-03T13:22:00.131Z,4.60
2019-01-03T13:24:31.005Z,3.30
2019-01-03T13:27:02.002Z,3.57
2019-01-03T13:29:32.992Z,3.30
2019-01-03T13:32:04.102Z,4.10
2019-01-03T13:34:35.078Z,3.87
2019-01-03T13:37:06.070Z,3.73
2019-01-03T13:39:36.940Z,2.97
2019-01-03T13:42:08.152Z,2.23
2019-01-03T13:44:39.139Z,2.40
2019-01-03T13:47:10.018Z,2.10
2019-01-03T13:49:41.935Z,1.60
2019-01-03T13:52:12.904Z,4.53
2019-01-03T13:54:43.806Z,2.93
2019-01-03T13:57:15.034Z,2.20
2019-01-03T13:59:45.894Z,2.33
2019-01-03T14:02:17.142Z,2.63
2019-01-03T14:04:47.962Z,2.87
2019-01-03T14:07:18.970Z,3.67
2019-01-03T14:09:49.841Z,2.77
2019-01-03T14:12:20.846Z,4.03
2019-01-03T14:14:51.842Z,2.90
2019-01-03T14:17:22.826Z,3.30
2019-01-03T14:19:53.818Z,4.20
2019-01-03T14:22:24.682Z,3.40
2019-01-03T14:24:55.685Z,3.80
2019-01-03T14:27:26.725Z,3.30
2019-01-03T14:29:57.666Z,3.40
2019-01-03T14:32:28.565Z,15.50
2019-01-03T14:34:59.534Z,15.90
2019-01-03T14:37:30.694Z,15.67
2019-01-03T14:40:01.629Z,22.67
2019-01-03T14:42:32.821Z,16.80
2019-01-03T14:45:03.718Z,9.90
2019-01-03T14:47:34.709Z,12.17
2019-01-03T14:50:06.108Z,7.80
2019-01-03T14:52:37.104Z,8.20
2019-01-03T14:55:08.382Z,7.87
2019-01-03T14:57:40.295Z,7.20
2019-01-03T15:00:14.198Z,7.87
2019-01-03T15:02:46.165Z,6.70
2019-01-03T15:05:17.162Z,5.37
2019-01-03T15:07:48.150Z,5.17
2019-01-03T15:10:19.041Z,4.80
2019-01-03T15:12:49.922Z,6.83
2019-01-03T15:15:20.909Z,5.10
2019-01-03T15:17:51.899Z,5.87
2019-01-03T15:20:22.990Z,4.30
2019-01-03T15:22:53.949Z,5.00
2019-01-03T15:25:24.888Z,5.10
2019-01-03T15:27:55.767Z,4.73
2019-01-03T15:30:26.637Z,5.07
2019-01-03T15:32:57.625Z,4.80
2019-01-03T15:35:28.734Z,4.87
2019-01-03T15:37:59.797Z,4.97
2019-01-03T15:40:30.605Z,5.20
2019-01-03T15:43:01.794Z,5.63
2019-01-03T15:45:33.710Z,5.83
2019-01-03T15:48:04.693Z,6.80
2019-01-03T15:50:35.699Z,7.57
2019-01-03T15:53:06.802Z,7.50
2019-01-03T15:55:37.884Z,7.90
2019-01-03T15:58:08.878Z,7.40
2019-01-03T16:00:39.741Z,7.87
2019-01-03T16:03:10.826Z,9.10
2019-01-03T16:05:41.845Z,9.30
2019-01-03T16:08:12.926Z,8.97
2019-01-03T16:10:43.819Z,9.87
2019-01-03T16:13:14.891Z,11.13
2019-01-03T16:15:45.905Z,10.63
2019-01-03T16:18:16.994Z,11.50
2019-01-03T16:20:47.977Z,11.00
2019-01-03T16:23:18.874Z,10.80
2019-01-03T16:25:49.865Z,8.77
2019-01-03T16:28:20.953Z,7.90
2019-01-03T16:30:51.947Z,7.30
2019-01-03T16:33:23.074Z,7.53
2019-01-03T16:35:54.131Z,6.83
2019-01-03T16:38:25.213Z,7.97
2019-01-03T16:40:55.990Z,7.00
2019-01-03T16:43:27.292Z,7.30
2019-01-03T16:45:58.393Z,6.30
2019-01-03T16:48:29.273Z,8.70
2019-01-03T16:51:00.278Z,7.40
2019-01-03T16:53:31.333Z,6.47
2019-01-03T16:56:02.242Z,7.23
2019-01-03T16:58:33.218Z,6.77
2019-01-03T17:01:04.331Z,6.90
2019-01-03T17:03:35.401Z,7.30
2019-01-03T17:06:06.418Z,8.57
2019-01-03T17:08:37.542Z,8.57
2019-01-03T17:11:08.503Z,9.77
2019-01-03T17:13:39.485Z,8.80
2019-01-03T17:16:10.478Z,8.90
2019-01-03T17:18:41.569Z,8.03
2019-01-03T17:21:12.441Z,9.13
2019-01-03T17:23:43.454Z,8.00
2019-01-03T17:26:14.438Z,9.50
2019-01-03T17:28:45.542Z,11.00
2019-01-03T17:31:16.401Z,12.60
2019-01-03T17:33:47.417Z,12.53
2019-01-03T17:36:18.502Z,12.03
2019-01-03T17:38:49.487Z,8.87
2019-01-03T17:41:20.370Z,10.10
2019-01-03T17:43:51.370Z,7.93
2019-01-03T17:46:22.358Z,8.37
2019-01-03T17:48:53.341Z,7.80
2019-01-03T17:51:24.237Z,7.70
2019-01-03T17:53:55.312Z,6.90
2019-01-03T17:56:26.209Z,6.53
2019-01-03T17:58:57.178Z,4.37
2019-01-03T18:01:28.299Z,5.90
2019-01-03T18:03:59.306Z,7.80
2019-01-03T18:06:30.295Z,7.70
2019-01-03T18:09:01.226Z,6.87
2019-01-03T18:11:33.678Z,5.53
2019-01-03T18:14:04.861Z,5.33
2019-01-03T18:16:35.870Z,7.07
2019-01-03T18:19:06.835Z,7.50
2019-01-03T18:21:37.742Z,6.67
2019-01-03T18:24:08.730Z,6.83
2019-01-03T18:26:40.438Z,6.70
2019-01-03T18:29:11.233Z,6.63
2019-01-03T18:31:42.112Z,6.60
2019-01-03T18:34:12.886Z,5.63
2019-01-03T18:36:43.830Z,5.93
2019-01-03T18:39:14.798Z,5.50
2019-01-03T18:41:45.778Z,5.10
2019-01-03T18:44:16.854Z,5.30
2019-01-03T18:46:47.851Z,4.77
2019-01-03T18:49:18.727Z,4.90
2019-01-03T18:51:49.738Z,5.10
2019-01-03T18:54:20.785Z,4.37
2019-01-03T18:56:51.715Z,6.10
2019-01-03T18:59:22.765Z,6.17
2019-01-03T19:01:53.577Z,5.07
2019-01-03T19:04:25.390Z,5.67
2019-01-03T19:06:56.274Z,5.30
2019-01-03T19:09:27.408Z,5.00
2019-01-03T19:11:58.257Z,4.80
2019-01-03T19:14:29.145Z,3.83
2019-01-03T19:17:00.142Z,4.40
2019-01-03T19:19:31.390Z,5.07
2019-01-03T19:22:02.215Z,3.73
2019-01-03T19:24:33.001Z,5.20
2019-01-03T19:27:03.987Z,3.63
2019-01-03T19:29:34.982Z,4.07
2019-01-03T19:32:05.984Z,4.27
2019-01-03T19:34:36.962Z,4.17
2019-01-03T19:37:07.841Z,5.00
2019-01-03T19:39:38.729Z,6.40
2019-01-03T19:42:09.834Z,5.90
2019-01-03T19:44:40.997Z,4.53
2019-01-03T19:47:11.817Z,4.73
2019-01-03T19:49:42.773Z,4.67
2019-01-03T19:52:13.685Z,6.20
2019-01-03T19:54:44.678Z,6.33
2019-01-03T19:57:15.673Z,5.70
2019-01-03T19:59:46.654Z,5.47
2019-01-03T20:02:17.683Z,6.80
2019-01-03T20:04:48.538Z,6.90
2019-01-03T20:07:19.437Z,6.70
2019-01-03T20:09:50.642Z,5.60
2019-01-03T20:12:21.626Z,6.30
2019-01-03T20:14:52.594Z,5.03
2019-01-03T20:17:23.482Z,6.10
2019-01-03T20:19:54.329Z,6.70
2019-01-03T20:22:25.159Z,6.17
2019-01-03T20:24:56.326Z,6.77
2019-01-03T20:27:27.450Z,5.47
2019-01-03T20:29:58.439Z,4.70
2019-01-03T20:32:29.329Z,5.50
2019-01-03T20:35:00.202Z,4.53
2019-01-03T20:37:31.136Z,5.70
2019-01-03T20:40:02.450Z,5.13
2019-01-03T20:42:34.414Z,7.43
2019-01-03T20:45:07.313Z,11.27
2019-01-03T20:47:38.337Z,10.50
2019-01-03T20:50:09.937Z,8.53
2019-01-03T20:52:40.935Z,8.13
2019-01-03T20:55:11.914Z,6.77
2019-01-03T20:57:42.921Z,6.93
2019-01-03T21:00:15.320Z,8.93
2019-01-03T21:02:46.333Z,7.90
2019-01-03T21:05:18.259Z,7.57
2019-01-03T21:07:49.331Z,8.60
2019-01-03T21:10:20.324Z,7.40
2019-01-03T21:12:51.209Z,8.50
2019-01-03T21:15:22.373Z,7.07
2019-01-03T21:17:53.394Z,8.23
2019-01-03T21:20:24.549Z,8.57
2019-01-03T21:22:55.463Z,7.57
2019-01-03T21:25:26.683Z,8.30
2019-01-03T21:27:57.657Z,8.77
2019-01-03T21:30:28.738Z,10.37
2019-01-03T21:32:59.725Z,9.83
2019-01-03T21:35:33.202Z,8.50
2019-01-03T21:38:04.062Z,9.30
2019-01-03T21:40:35.394Z,10.37
2019-01-03T21:43:06.472Z,10.43
2019-01-03T21:45:37.803Z,9.40
2019-01-03T21:48:08.641Z,9.03
2019-01-03T21:50:39.870Z,8.60
2019-01-03T21:53:10.834Z,7.63
2019-01-03T21:55:41.965Z,8.10
2019-01-03T21:58:12.962Z,8.33
2019-01-03T22:00:44.246Z,8.63
2019-01-03T22:03:15.306Z,9.67
2019-01-03T22:05:46.483Z,8.50
2019-01-03T22:08:17.490Z,9.60
2019-01-03T22:10:48.634Z,9.30
2019-01-03T22:13:19.574Z,9.00
2019-01-03T22:15:50.662Z,9.33
2019-01-03T22:18:21.642Z,9.63
2019-01-03T22:20:52.513Z,9.97
2019-01-03T22:23:23.526Z,8.27
2019-01-03T22:25:54.618Z,8.70
2019-01-03T22:28:25.502Z,7.63
2019-01-03T22:30:56.504Z,8.10
2019-01-03T22:33:27.286Z,8.03
2019-01-03T22:35:58.270Z,9.30
2019-01-03T22:38:29.269Z,7.33
2019-01-03T22:41:00.577Z,8.10
2019-01-03T22:43:31.437Z,8.10
2019-01-03T22:46:02.478Z,8.77
2019-01-03T22:48:33.226Z,7.80
2019-01-03T22:51:04.558Z,8.87
2019-01-03T22:53:35.306Z,8.73
2019-01-03T22:56:06.359Z,9.03
2019-01-03T22:58:39.493Z,10.13
2019-01-03T23:01:11.221Z,8.40
2019-01-03T23:03:42.135Z,7.50
2019-01-03T23:06:13.190Z,7.73
2019-01-03T23:08:44.118Z,8.00
2019-01-03T23:11:15.094Z,7.70
2019-01-03T23:13:46.097Z,8.50
2019-01-03T23:16:19.746Z,6.97
2019-01-03T23:18:50.622Z,8.23
2019-01-03T23:21:21.985Z,7.53
2019-01-03T23:23:52.917Z,7.47
2019-01-03T23:26:23.893Z,7.70
2019-01-03T23:28:54.797Z,7.90
2019-01-03T23:31:25.675Z,7.57
2019-01-03T23:33:56.574Z,8.10
2019-01-03T23:36:27.550Z,7.53
2019-01-03T23:38:58.562Z,7.47
2019-01-03T23:41:29.429Z,6.90
2019-01-03T23:44:00.313Z,7.30
2019-01-03T23:46:31.431Z,7.17
2019-01-03T23:49:02.414Z,7.47
2019-01-03T23:51:33.365Z,6.83
2019-01-03T23:54:04.083Z,7.40
2019-01-03T23:56:35.049Z,7.20
2019-01-03T23:59:06.177Z,6.90
